CheckWX is a tool to help pilots better visualize weather data.  It is not intended as a substitute for an official pre-flight weather briefing.

09:43:32 UTC

LFPN METAR
Toussus-le-Noble Airport
Toussus-le-Noble, France
Current

44 mins ago

LFPN 210900Z AUTO 14008KT CAVOK 18/08 Q1014 NOSIG
Observed
Sep-21 @ 09:00 UTC
Wind
  • 140° at 8 KTS
Visibility
10,000+ meters
Flight Rules
VFR
Cloud Levels
  • Clear skies
Temperature
18°C / 64°F
Dewpoint
C / 46°F
Humidity
52%
Altimeter
29.94" Hg
Pressure
1013.92 hPa
Previous

1 hour ago

LFPN 210830Z AUTO 13007KT CAVOK 17/07 Q1015 NOSIG
Observed
Sep-21 @ 08:30 UTC
Wind
  • 130° at 7 KTS
Visibility
10,000+ meters
Flight Rules
VFR
Cloud Levels
  • Clear skies
Temperature
17°C / 63°F
Dewpoint
C / 45°F
Humidity
52%
Altimeter
29.97" Hg
Pressure
1014.92 hPa
Previous

2 hours ago

LFPN 210800Z AUTO 12006KT 090V160 CAVOK 16/06 Q1015 NOSIG
Observed
Sep-21 @ 08:00 UTC
Wind
  • 120° at 6 KTS
Visibility
10,000+ meters
Flight Rules
VFR
Cloud Levels
  • Clear skies
Temperature
16°C / 61°F
Dewpoint
C / 43°F
Humidity
52%
Altimeter
29.97" Hg
Pressure
1014.92 hPa